Time;durP1;ratioP1;P1;durP2;ratioP2;P2;SDS_P1;SDS_P2;PMS_P1;PMS_P2;Temp;Humidity;BMP_temperature;BMP_pressure;BME280_temperature;BME280_humidity;BME280_pressure;Samples;Min_cycle;Max_cycle;Signal;HPM_P1;HPM_P2
2022/12/15 00:40:10;;;;;;;33.85;26.42;;;-0.50;99.90;;;;;;6089155;23;20614;-75
2022/12/15 00:42:37;;;;;;;38.53;27.45;;;-0.50;99.90;;;;;;6088233;23;20200;-75
2022/12/15 00:45:06;;;;;;;38.15;28.58;;;-0.50;99.90;;;;;;6089084;23;20269;-75
2022/12/15 00:47:33;;;;;;;34.28;26.35;;;-0.50;99.90;;;;;;6085694;23;20192;-75
2022/12/15 01:20:22;;;;;;;33.42;27.40;;;-0.50;99.90;;;;;;6087782;23;20279;-73
2022/12/15 01:22:52;;;;;;;37.13;28.20;;;-0.40;99.90;;;;;;6086483;23;20200;-73
2022/12/15 01:25:21;;;;;;;36.00;28.02;;;-0.40;99.90;;;;;;6088883;23;20204;-73
2022/12/15 01:27:51;;;;;;;39.25;28.35;;;-0.40;99.90;;;;;;6088122;23;21392;-73
2022/12/15 01:30:21;;;;;;;36.63;27.75;;;-0.40;99.90;;;;;;6086002;23;20203;-73
2022/12/15 01:32:49;;;;;;;33.25;26.27;;;-0.40;99.90;;;;;;6084605;23;20204;-72
2022/12/15 01:35:17;;;;;;;35.42;28.65;;;-0.30;99.90;;;;;;6083984;23;20200;-73
2022/12/15 01:37:44;;;;;;;33.90;26.60;;;-0.30;99.90;;;;;;6090556;23;20319;-74
2022/12/15 01:43:02;;;;;;;35.08;27.38;;;-0.30;99.90;;;;;;6089622;23;20196;-74
2022/12/15 01:45:51;;;;;;;34.63;26.63;;;-0.30;99.90;;;;;;6090813;23;20195;-74
2022/12/15 01:48:25;;;;;;;37.38;27.33;;;-0.20;99.90;;;;;;6084168;23;20279;-74
2022/12/15 01:51:10;;;;;;;35.90;26.70;;;-0.20;99.90;;;;;;6089925;23;20641;-74
2022/12/15 01:53:43;;;;;;;33.60;25.50;;;-0.20;99.90;;;;;;6091088;23;20195;-73
2022/12/15 01:56:11;;;;;;;31.17;24.85;;;-0.20;99.90;;;;;;6089175;23;20203;-74
2022/12/15 01:58:45;;;;;;;33.35;25.50;;;-0.20;99.90;;;;;;6091225;23;20274;-74
2022/12/15 02:01:13;;;;;;;34.90;26.73;;;-0.20;99.90;;;;;;6079043;23;20270;-74
2022/12/15 02:03:42;;;;;;;34.10;26.73;;;-0.10;99.90;;;;;;6088449;23;20192;-74
2022/12/15 02:06:11;;;;;;;35.72;26.77;;;-0.10;99.90;;;;;;6084376;23;20219;-74
2022/12/15 02:08:41;;;;;;;37.75;25.80;;;-0.10;99.90;;;;;;6091858;23;20192;-74
2022/12/15 02:11:33;;;;;;;34.15;26.48;;;-0.10;99.90;;;;;;6091339;23;20257;-73
2022/12/15 02:14:04;;;;;;;33.17;25.33;;;-0.10;99.90;;;;;;6079807;23;20245;-74
2022/12/15 02:16:50;;;;;;;31.65;23.88;;;-0.20;99.90;;;;;;6088652;23;20195;-74
2022/12/15 02:19:50;;;;;;;33.35;25.90;;;-0.20;99.90;;;;;;6091687;23;20653;-74
2022/12/15 02:22:27;;;;;;;37.38;27.00;;;-0.20;99.90;;;;;;6080995;23;20192;-74
2022/12/15 02:25:23;;;;;;;35.35;27.80;;;-0.20;99.90;;;;;;6088200;23;20202;-73
2022/12/15 02:28:01;;;;;;;35.72;26.75;;;-0.20;99.90;;;;;;6067182;23;20200;-73
2022/12/15 02:30:39;;;;;;;32.88;26.38;;;-0.40;99.90;;;;;;6090683;23;20201;-74
2022/12/15 02:33:15;;;;;;;33.20;26.95;;;-0.10;99.90;;;;;;6079764;23;20191;-74
2022/12/15 02:35:51;;;;;;;34.05;27.30;;;-0.10;99.90;;;;;;6081661;23;20196;-74
2022/12/15 02:38:32;;;;;;;39.20;26.42;;;-0.10;99.90;;;;;;6090860;23;20219;-74
2022/12/15 02:41:01;;;;;;;35.10;25.60;;;-0.10;99.90;;;;;;6091495;23;20196;-74
2022/12/15 02:43:31;;;;;;;36.22;29.05;;;-0.10;99.90;;;;;;6085869;23;20192;-74
2022/12/15 02:46:12;;;;;;;37.75;27.73;;;-0.10;99.90;;;;;;6081385;23;20199;-74
2022/12/15 02:48:51;;;;;;;35.65;25.98;;;-0.10;99.90;;;;;;6085417;23;20226;-74
2022/12/15 02:51:32;;;;;;;34.58;27.63;;;-0.10;99.90;;;;;;6088505;23;20196;-74
2022/12/15 02:54:15;;;;;;;37.45;26.48;;;-0.10;99.90;;;;;;6083692;23;20192;-74
2022/12/15 02:56:52;;;;;;;42.13;28.98;;;-0.10;99.90;;;;;;6087748;23;20224;-74
2022/12/15 02:59:27;;;;;;;37.88;27.13;;;-0.10;99.90;;;;;;6088669;23;20215;-74
2022/12/15 03:02:00;;;;;;;35.70;27.17;;;-0.10;99.90;;;;;;6089286;23;20214;-73
2022/12/15 03:04:32;;;;;;;36.67;27.70;;;-0.10;99.90;;;;;;6088350;23;20263;-73
2022/12/15 03:07:02;;;;;;;36.78;26.52;;;-0.10;99.90;;;;;;6088887;23;20204;-73
2022/12/15 03:09:31;;;;;;;39.60;27.42;;;-0.20;99.90;;;;;;6089247;23;20203;-74
2022/12/15 03:11:59;;;;;;;35.03;25.40;;;-0.20;99.90;;;;;;6086497;23;20204;-74
2022/12/15 03:14:26;;;;;;;37.60;27.48;;;-0.10;99.90;;;;;;6088220;23;20218;-74
2022/12/15 03:16:56;;;;;;;37.15;26.45;;;-0.10;99.90;;;;;;6087730;23;20231;-74
2022/12/15 03:19:24;;;;;;;38.58;27.42;;;-0.10;99.90;;;;;;6085095;23;20219;-74
2022/12/15 03:21:52;;;;;;;34.78;26.50;;;-0.10;99.90;;;;;;6086065;23;20195;-74
2022/12/15 03:24:20;;;;;;;36.90;26.83;;;-0.10;99.90;;;;;;6089365;23;20253;-74
2022/12/15 03:26:49;;;;;;;37.30;27.63;;;-0.10;99.90;;;;;;6088802;23;20203;-74
2022/12/15 03:29:17;;;;;;;36.67;27.30;;;-0.10;99.90;;;;;;6087603;23;20223;-73
2022/12/15 03:31:45;;;;;;;38.47;27.27;;;-0.20;99.90;;;;;;6089592;23;20192;-74
2022/12/15 03:34:15;;;;;;;34.22;26.27;;;-0.20;99.90;;;;;;6086529;23;20200;-74
2022/12/15 03:36:44;;;;;;;36.40;25.73;;;-0.20;99.90;;;;;;6076237;23;20254;-74
2022/12/15 03:39:12;;;;;;;36.00;25.48;;;-0.30;99.90;;;;;;6102101;23;20295;-73
2022/12/15 03:41:40;;;;;;;34.22;24.67;;;-0.30;99.90;;;;;;6088875;23;20193;-74
2022/12/15 03:44:08;;;;;;;34.45;26.42;;;-0.30;99.90;;;;;;6089544;23;20196;-74
2022/12/15 03:46:36;;;;;;;34.90;25.42;;;-0.20;99.90;;;;;;6090862;23;20275;-74
2022/12/15 03:49:04;;;;;;;35.45;26.67;;;-0.20;99.90;;;;;;6088878;23;20188;-74
2022/12/15 03:51:32;;;;;;;34.53;25.63;;;-0.20;99.90;;;;;;6088807;23;20198;-73
2022/12/15 03:54:00;;;;;;;32.97;24.17;;;-0.20;99.90;;;;;;6087632;23;20193;-74
2022/12/15 03:56:29;;;;;;;37.38;26.70;;;-0.20;99.90;;;;;;6087113;23;20196;-74
2022/12/15 03:58:56;;;;;;;38.45;26.17;;;-0.20;99.90;;;;;;6080095;23;20212;-74
2022/12/15 04:01:28;;;;;;;37.90;26.58;;;-0.20;99.90;;;;;;6088003;23;20211;-74
2022/12/15 04:03:57;;;;;;;39.10;26.95;;;-0.20;99.90;;;;;;6086117;23;20633;-74
2022/12/15 04:06:25;;;;;;;35.72;25.70;;;-0.20;99.90;;;;;;6088498;23;20602;-73
2022/12/15 04:08:54;;;;;;;35.75;25.38;;;-0.20;99.90;;;;;;6087351;23;20199;-73
2022/12/15 04:11:22;;;;;;;33.85;23.80;;;-0.20;99.90;;;;;;6089011;23;20644;-73
2022/12/15 04:13:49;;;;;;;38.22;26.70;;;-0.30;99.90;;;;;;6087217;23;20725;-73
2022/12/15 04:16:17;;;;;;;37.08;27.00;;;-0.30;99.90;;;;;;6089951;23;20271;-73
2022/12/15 04:18:44;;;;;;;35.22;25.05;;;-0.40;99.90;;;;;;6087479;23;20588;-72
2022/12/15 04:21:11;;;;;;;35.20;25.02;;;-0.40;99.90;;;;;;6092209;23;20195;-72
2022/12/15 05:32:33;;;;;;;36.75;26.90;;;-0.50;99.90;;;;;;6078880;23;20222;-72
2022/12/15 05:35:01;;;;;;;35.67;24.50;;;-0.40;99.90;;;;;;6087879;23;20279;-72
2022/12/15 05:37:29;;;;;;;38.72;25.17;;;-0.40;99.90;;;;;;6088700;23;20214;-72
2022/12/15 05:39:56;;;;;;;35.45;25.65;;;-0.40;99.90;;;;;;6085560;23;20303;-72
2022/12/15 05:42:23;;;;;;;36.00;24.83;;;-0.50;99.90;;;;;;6086257;23;20617;-72
2022/12/15 05:44:50;;;;;;;39.95;26.45;;;-0.40;99.90;;;;;;6069020;23;20204;-71
2022/12/15 05:47:18;;;;;;;40.13;27.13;;;-0.50;99.90;;;;;;6073612;23;20192;-72
2022/12/15 05:49:46;;;;;;;35.67;26.50;;;-0.60;99.90;;;;;;6072560;23;20202;-72
2022/12/15 05:52:13;;;;;;;39.17;27.33;;;-0.70;99.90;;;;;;6079504;23;20267;-72
2022/12/15 05:54:41;;;;;;;35.75;25.95;;;-0.70;99.90;;;;;;6077767;23;20634;-72
2022/12/15 05:57:09;;;;;;;40.92;27.30;;;-0.60;99.90;;;;;;6084589;23;20202;-72
2022/12/15 05:59:37;;;;;;;37.20;27.52;;;-0.70;99.90;;;;;;6077043;23;20243;-72
2022/12/15 06:02:04;;;;;;;42.28;29.00;;;-0.70;99.90;;;;;;6085590;23;20188;-72
2022/12/15 06:04:31;;;;;;;41.30;28.10;;;-0.70;99.90;;;;;;6083220;23;20275;-72
2022/12/15 06:07:00;;;;;;;38.13;27.85;;;-0.60;99.90;;;;;;6081584;23;20264;-72
2022/12/15 06:09:27;;;;;;;39.65;25.90;;;-0.70;99.90;;;;;;6085726;23;20238;-72
2022/12/15 06:11:54;;;;;;;35.60;25.77;;;-0.70;99.90;;;;;;6087320;23;20196;-72
2022/12/15 06:14:21;;;;;;;42.95;27.88;;;-0.70;99.90;;;;;;6083146;23;20562;-71
2022/12/15 06:16:48;;;;;;;41.60;26.50;;;-0.70;99.90;;;;;;6087507;23;20276;-72
2022/12/15 06:19:16;;;;;;;37.15;26.50;;;-0.70;99.90;;;;;;6088088;23;20234;-71
2022/12/15 06:21:43;;;;;;;37.05;28.25;;;-0.60;99.90;;;;;;6087123;23;20547;-72
2022/12/15 06:24:12;;;;;;;36.47;26.40;;;-0.70;99.90;;;;;;6089909;23;20192;-72
2022/12/15 06:26:40;;;;;;;34.58;25.85;;;-0.70;99.90;;;;;;6082877;23;20652;-72
2022/12/15 06:29:10;;;;;;;38.25;27.60;;;-0.60;99.90;;;;;;6088550;23;20661;-72
2022/12/15 06:31:38;;;;;;;37.45;25.30;;;-0.60;99.90;;;;;;6081711;23;20283;-72
2022/12/15 06:34:09;;;;;;;37.35;27.23;;;-0.70;99.90;;;;;;6088810;23;20665;-71
2022/12/15 06:36:36;;;;;;;39.33;28.77;;;-0.70;99.90;;;;;;6088245;23;20203;-72
2022/12/15 06:39:05;;;;;;;39.95;28.10;;;-0.70;99.90;;;;;;6088633;23;20230;-72
2022/12/15 06:41:34;;;;;;;41.05;29.33;;;-0.60;99.90;;;;;;6085009;23;20271;-72
2022/12/15 06:44:01;;;;;;;35.70;26.35;;;-0.60;99.90;;;;;;6079648;23;20696;-71
2022/12/15 06:46:31;;;;;;;39.75;26.08;;;-0.60;99.90;;;;;;6089750;23;20199;-71
2022/12/15 06:48:59;;;;;;;39.15;27.30;;;-0.60;99.90;;;;;;6078161;23;20208;-71
2022/12/15 06:51:27;;;;;;;38.83;27.02;;;-0.60;99.90;;;;;;6081271;23;20287;-72
2022/12/15 06:53:55;;;;;;;41.42;28.33;;;-0.60;99.90;;;;;;6087966;23;20277;-71
2022/12/15 06:56:24;;;;;;;43.13;28.77;;;-0.60;99.90;;;;;;6090074;23;20254;-72
2022/12/15 06:58:53;;;;;;;38.90;28.10;;;-0.60;99.90;;;;;;6085855;23;20208;-72
2022/12/15 07:01:23;;;;;;;36.45;25.73;;;-0.50;99.90;;;;;;6087230;23;20211;-71
2022/12/15 07:03:51;;;;;;;39.60;28.05;;;-0.40;99.90;;;;;;6088355;23;20202;-72
2022/12/15 07:06:19;;;;;;;36.95;27.63;;;-0.40;99.90;;;;;;6095560;23;20212;-72
2022/12/15 07:08:51;;;;;;;35.55;27.90;;;-0.30;99.90;;;;;;6084530;23;20204;-73
2022/12/15 07:11:20;;;;;;;42.45;31.92;;;-0.30;99.90;;;;;;6090982;23;20192;-72
2022/12/15 07:13:49;;;;;;;41.00;30.38;;;-0.20;99.90;;;;;;6089218;23;20267;-73
2022/12/15 07:16:18;;;;;;;39.10;26.92;;;-0.20;99.90;;;;;;6088679;23;20192;-73
2022/12/15 07:18:46;;;;;;;36.33;26.60;;;-0.10;99.90;;;;;;6088489;23;20208;-72
2022/12/15 07:21:14;;;;;;;33.42;24.67;;;-0.20;99.90;;;;;;6087870;23;20188;-72
2022/12/15 07:23:41;;;;;;;37.45;26.58;;;-0.20;99.90;;;;;;6089101;23;20592;-72
2022/12/15 07:26:09;;;;;;;41.05;26.40;;;-0.20;99.90;;;;;;6087889;23;20649;-72
2022/12/15 07:28:37;;;;;;;34.08;25.58;;;-0.20;99.90;;;;;;6079006;23;20212;-72
2022/12/15 07:31:06;;;;;;;36.90;26.50;;;-0.20;99.90;;;;;;6078523;23;20608;-72
2022/12/15 07:33:35;;;;;;;36.28;25.65;;;-0.20;99.90;;;;;;6087363;23;20243;-72
2022/12/15 07:36:04;;;;;;;34.65;25.35;;;-0.20;99.90;;;;;;6082104;23;20206;-71
2022/12/15 07:38:31;;;;;;;36.38;26.92;;;-0.20;99.90;;;;;;6085261;23;20196;-71
2022/12/15 07:41:00;;;;;;;39.17;26.98;;;-0.10;99.90;;;;;;6089453;23;20196;-72
2022/12/15 07:43:29;;;;;;;35.30;25.70;;;-0.10;99.90;;;;;;6080809;23;20608;-71
2022/12/15 07:45:56;;;;;;;32.95;24.55;;;-0.10;99.90;;;;;;6084067;23;20189;-72
2022/12/15 07:48:24;;;;;;;33.17;24.75;;;0.00;99.90;;;;;;6084965;23;20192;-72
2022/12/15 07:50:56;;;;;;;36.08;25.15;;;0.10;99.90;;;;;;6088602;23;20559;-72
2022/12/15 07:53:24;;;;;;;32.53;23.83;;;0.10;99.90;;;;;;6084472;23;20227;-72
2022/12/15 07:55:55;;;;;;;34.63;24.20;;;0.20;99.90;;;;;;6088072;23;20624;-72
2022/12/15 07:58:23;;;;;;;35.22;25.27;;;0.20;99.90;;;;;;6084931;23;20275;-72
2022/12/15 08:00:50;;;;;;;31.33;22.33;;;0.30;99.90;;;;;;6089117;23;20574;-72
2022/12/15 08:03:17;;;;;;;34.80;24.13;;;0.30;99.90;;;;;;6086037;23;20190;-72
2022/12/15 08:05:44;;;;;;;35.10;23.35;;;0.40;99.90;;;;;;6089394;23;20196;-71
2022/12/15 08:08:13;;;;;;;32.65;22.60;;;0.40;99.90;;;;;;6088433;23;21066;-73
2022/12/15 08:10:40;;;;;;;32.08;23.00;;;0.50;99.90;;;;;;6078317;23;20300;-72
2022/12/15 08:13:07;;;;;;;29.77;22.23;;;0.40;99.90;;;;;;6088578;23;20216;-72
2022/12/15 08:15:36;;;;;;;34.70;23.30;;;0.40;99.90;;;;;;6089922;23;20200;-72
2022/12/15 08:18:04;;;;;;;33.70;23.58;;;0.50;99.90;;;;;;6087990;23;20569;-72
2022/12/15 08:20:34;;;;;;;31.90;21.98;;;0.50;99.90;;;;;;6087355;23;20694;-72
2022/12/15 08:23:01;;;;;;;31.35;22.88;;;0.50;99.90;;;;;;6087066;23;20718;-72
2022/12/15 08:25:31;;;;;;;29.83;21.67;;;0.50;99.90;;;;;;6088448;23;20239;-72
2022/12/15 08:27:59;;;;;;;31.65;23.30;;;0.50;99.90;;;;;;6091196;23;20234;-72
2022/12/15 08:30:26;;;;;;;31.63;22.48;;;0.60;99.90;;;;;;6088358;23;20215;-72
2022/12/15 08:32:53;;;;;;;33.70;23.30;;;0.60;99.90;;;;;;6089828;23;20282;-72
2022/12/15 08:35:21;;;;;;;32.63;22.67;;;0.70;99.90;;;;;;6088204;23;20188;-72
2022/12/15 08:37:49;;;;;;;31.50;21.60;;;0.70;99.90;;;;;;6081904;23;20220;-72
2022/12/15 08:40:16;;;;;;;31.77;24.30;;;0.70;99.90;;;;;;6089477;23;20281;-72
2022/12/15 08:42:45;;;;;;;31.15;22.83;;;0.70;99.90;;;;;;6085207;23;20551;-72
2022/12/15 08:45:12;;;;;;;32.95;22.83;;;0.80;99.90;;;;;;6087110;23;20188;-71
2022/12/15 08:47:40;;;;;;;31.55;23.02;;;0.90;99.90;;;;;;6084619;23;20209;-74
2022/12/15 08:50:08;;;;;;;27.88;20.85;;;0.90;99.90;;;;;;6085107;23;20185;-72
2022/12/15 08:52:40;;;;;;;33.42;23.20;;;1.00;99.90;;;;;;6088844;23;20200;-72
2022/12/15 08:55:10;;;;;;;29.00;22.60;;;1.00;99.90;;;;;;6080597;23;20270;-71
2022/12/15 08:57:37;;;;;;;29.77;21.73;;;1.10;99.90;;;;;;6086548;23;20192;-72
2022/12/15 09:00:07;;;;;;;31.33;23.35;;;1.10;99.90;;;;;;6087481;23;20204;-72
2022/12/15 09:02:35;;;;;;;29.42;21.40;;;1.10;99.90;;;;;;6085136;23;20588;-72
2022/12/15 09:05:05;;;;;;;26.55;20.77;;;1.20;99.90;;;;;;6086247;23;20643;-72
2022/12/15 09:07:32;;;;;;;28.50;20.75;;;1.20;99.90;;;;;;6087733;23;20199;-72
2022/12/15 09:09:59;;;;;;;28.02;22.55;;;1.30;99.90;;;;;;6088984;23;20189;-72
2022/12/15 09:12:26;;;;;;;28.55;22.55;;;1.30;99.90;;;;;;6088634;23;20250;-72
2022/12/15 09:14:53;;;;;;;28.85;22.42;;;1.30;99.90;;;;;;6097099;23;20338;-72
2022/12/15 09:17:22;;;;;;;29.77;22.30;;;1.30;99.90;;;;;;6089655;23;20195;-72
2022/12/15 09:19:49;;;;;;;29.15;22.10;;;1.30;99.90;;;;;;6087067;23;20205;-72
2022/12/15 09:22:16;;;;;;;28.80;24.13;;;1.40;99.90;;;;;;6085045;23;20254;-72
2022/12/15 09:24:43;;;;;;;29.45;21.27;;;1.50;99.90;;;;;;6085150;23;20211;-72
2022/12/15 09:27:10;;;;;;;29.05;22.63;;;1.50;99.90;;;;;;6086406;23;20504;-72
2022/12/15 09:29:37;;;;;;;30.92;22.27;;;1.50;99.90;;;;;;6068422;23;20223;-72
2022/12/15 09:32:05;;;;;;;30.33;23.15;;;1.60;99.90;;;;;;6083581;23;20219;-72
2022/12/15 09:34:35;;;;;;;28.58;21.05;;;1.50;99.90;;;;;;6083970;23;20188;-72
2022/12/15 09:37:02;;;;;;;30.48;20.73;;;1.60;99.90;;;;;;6087088;23;20188;-71
2022/12/15 09:39:31;;;;;;;29.10;21.65;;;1.60;99.90;;;;;;6087099;23;20528;-71
2022/12/15 09:42:01;;;;;;;29.10;22.02;;;1.70;99.90;;;;;;6080869;23;20223;-71
2022/12/15 09:44:31;;;;;;;28.83;21.42;;;1.70;99.90;;;;;;6087252;23;20192;-72
2022/12/15 09:47:10;;;;;;;28.27;22.52;;;1.70;99.90;;;;;;6086688;23;20196;-72
2022/12/15 09:49:53;;;;;;;30.38;22.38;;;1.70;99.90;;;;;;6086096;23;20188;-71
2022/12/15 09:52:25;;;;;;;31.52;23.13;;;1.80;99.90;;;;;;6082872;23;20200;-72
2022/12/15 09:54:52;;;;;;;30.48;22.10;;;1.90;99.90;;;;;;6085001;23;20217;-72
2022/12/15 09:57:31;;;;;;;28.20;22.20;;;1.90;99.90;;;;;;6089000;23;20659;-72
2022/12/15 10:00:08;;;;;;;29.35;22.10;;;1.90;99.90;;;;;;6085435;23;20669;-72
2022/12/15 10:03:24;;;;;;;28.98;21.38;;;2.00;99.90;;;;;;6086449;23;20563;-72
2022/12/15 10:06:08;;;;;;;31.25;22.83;;;2.00;99.90;;;;;;6085034;23;20278;-72
2022/12/15 10:08:38;;;;;;;27.58;21.27;;;2.10;99.90;;;;;;6083740;23;20193;-71
2022/12/15 10:11:14;;;;;;;30.77;23.58;;;2.10;99.90;;;;;;6089775;23;20230;-71
2022/12/15 10:13:51;;;;;;;31.33;23.83;;;2.10;99.90;;;;;;6077807;23;20528;-72
2022/12/15 10:16:24;;;;;;;30.70;25.05;;;2.10;99.90;;;;;;6088605;23;20190;-71
2022/12/15 10:19:02;;;;;;;32.08;24.50;;;2.10;99.90;;;;;;6088478;23;20314;-71
2022/12/15 10:21:31;;;;;;;27.42;20.38;;;2.20;99.90;;;;;;6085499;23;20288;-71
2022/12/15 10:24:11;;;;;;;29.35;22.40;;;2.10;99.90;;;;;;6080691;23;20268;-72
2022/12/15 10:26:41;;;;;;;28.30;22.30;;;2.00;99.90;;;;;;6081613;23;20268;-71
2022/12/15 10:29:23;;;;;;;27.88;22.08;;;2.00;99.90;;;;;;6087519;23;20600;-73
2022/12/15 10:31:52;;;;;;;31.17;23.08;;;2.00;99.90;;;;;;6083737;23;20254;-73
2022/12/15 10:34:27;;;;;;;28.50;22.70;;;1.90;99.90;;;;;;6087001;23;20268;-73
2022/12/15 10:36:58;;;;;;;29.42;22.73;;;1.90;99.90;;;;;;6086090;23;20195;-73
2022/12/15 10:39:38;;;;;;;29.42;21.88;;;1.90;99.90;;;;;;6087953;23;20681;-73
2022/12/15 10:42:22;;;;;;;27.27;21.50;;;1.90;99.90;;;;;;6088459;23;20190;-72
2022/12/15 10:44:51;;;;;;;29.05;23.02;;;1.90;99.90;;;;;;6086609;23;21063;-73
2022/12/15 10:47:22;;;;;;;29.73;23.00;;;2.10;99.90;;;;;;6089643;23;20192;-73
2022/12/15 10:49:50;;;;;;;29.30;24.00;;;2.20;99.90;;;;;;6085754;23;20293;-73
2022/12/15 10:52:27;;;;;;;26.48;19.83;;;2.30;99.90;;;;;;6088918;23;20187;-73
2022/12/15 10:54:55;;;;;;;29.40;22.85;;;2.50;99.90;;;;;;6087917;23;20206;-73
2022/12/15 10:57:26;;;;;;;26.23;22.13;;;2.60;99.90;;;;;;6088401;23;20274;-73
2022/12/15 10:59:54;;;;;;;24.92;20.58;;;2.70;99.90;;;;;;6088554;23;20648;-73
2022/12/15 11:02:31;;;;;;;27.42;21.70;;;2.70;99.90;;;;;;6083853;23;20196;-72
2022/12/15 11:05:00;;;;;;;29.63;22.35;;;2.80;99.90;;;;;;6086537;23;20286;-73
2022/12/15 11:07:38;;;;;;;27.27;22.25;;;2.80;99.90;;;;;;6081205;23;20201;-72
2022/12/15 11:10:16;;;;;;;30.38;22.67;;;2.70;99.90;;;;;;6089683;23;20191;-73
2022/12/15 11:12:52;;;;;;;24.70;20.33;;;2.60;99.90;;;;;;6086232;23;20192;-73
2022/12/15 11:15:44;;;;;;;26.40;20.88;;;2.60;99.90;;;;;;6084204;23;20264;-73
2022/12/15 11:18:19;;;;;;;26.42;20.00;;;2.60;99.90;;;;;;6075724;23;20198;-73
2022/12/15 11:20:55;;;;;;;26.75;21.35;;;2.60;99.90;;;;;;6087876;23;20287;-72
2022/12/15 11:23:30;;;;;;;27.55;22.58;;;2.60;99.90;;;;;;6085193;23;20249;-73
2022/12/15 11:26:01;;;;;;;28.05;21.70;;;2.50;99.90;;;;;;6085300;23;20190;-72
2022/12/15 11:28:37;;;;;;;30.67;23.15;;;2.60;99.90;;;;;;6086769;23;20660;-73
2022/12/15 11:31:22;;;;;;;29.30;21.90;;;2.60;99.90;;;;;;6080254;23;20196;-73
2022/12/15 11:33:51;;;;;;;26.15;21.75;;;2.50;99.90;;;;;;6085473;23;20247;-72
2022/12/15 11:36:31;;;;;;;27.50;21.45;;;2.50;99.90;;;;;;6085559;23;20242;-72
2022/12/15 11:39:08;;;;;;;28.23;22.80;;;2.60;99.90;;;;;;6086538;23;20202;-73
2022/12/15 11:41:41;;;;;;;25.10;21.65;;;2.60;99.90;;;;;;6086480;23;20225;-72
2022/12/15 11:44:21;;;;;;;25.67;21.25;;;2.70;99.90;;;;;;6085908;23;20702;-72
2022/12/15 11:46:56;;;;;;;26.70;22.05;;;2.70;99.90;;;;;;6085970;23;20194;-73
2022/12/15 11:49:54;;;;;;;25.60;20.92;;;2.80;99.90;;;;;;6078683;23;20616;-73
2022/12/15 11:52:38;;;;;;;24.00;21.00;;;2.90;99.90;;;;;;6076941;23;20249;-73
2022/12/15 11:55:16;;;;;;;25.92;21.25;;;2.90;99.90;;;;;;6078937;23;20194;-72
2022/12/15 11:58:05;;;;;;;25.65;20.00;;;2.90;99.90;;;;;;6080068;23;20223;-73
2022/12/15 12:00:40;;;;;;;25.33;20.10;;;3.00;99.90;;;;;;6085124;23;20265;-71
2022/12/15 12:03:29;;;;;;;26.08;20.45;;;3.00;99.90;;;;;;6088898;23;20636;-72
2022/12/15 12:06:08;;;;;;;25.95;20.67;;;2.90;99.90;;;;;;6078133;23;20286;-71
2022/12/15 12:08:52;;;;;;;25.67;19.92;;;2.90;99.90;;;;;;6085539;23;20215;-73
2022/12/15 12:11:28;;;;;;;26.67;20.85;;;2.90;99.90;;;;;;6079157;23;20213;-73
2022/12/15 12:14:14;;;;;;;28.90;22.23;;;2.90;99.90;;;;;;6086266;23;20224;-73
2022/12/15 12:16:50;;;;;;;26.63;19.63;;;2.60;99.90;;;;;;6083734;23;20196;-73
2022/12/15 12:19:23;;;;;;;26.30;19.70;;;2.60;99.90;;;;;;6085893;23;20271;-74
2022/12/15 12:21:56;;;;;;;28.42;20.13;;;2.60;99.90;;;;;;6087706;23;20243;-74
2022/12/15 12:24:28;;;;;;;27.35;22.40;;;2.40;99.90;;;;;;6082325;23;20194;-74
2022/12/15 12:27:01;;;;;;;25.98;20.73;;;2.40;99.90;;;;;;6088123;23;20316;-74
2022/12/15 12:29:33;;;;;;;27.65;20.58;;;2.40;99.90;;;;;;6085361;23;20205;-74
2022/12/15 12:32:07;;;;;;;25.90;21.50;;;2.40;99.90;;;;;;6081832;23;20584;-73
2022/12/15 12:34:54;;;;;;;26.55;20.80;;;2.40;99.90;;;;;;6083959;23;20221;-73
2022/12/15 12:37:26;;;;;;;26.50;20.65;;;2.40;99.90;;;;;;6088115;23;20224;-74
2022/12/15 12:40:04;;;;;;;27.75;20.98;;;2.50;99.90;;;;;;6088420;23;20190;-74
2022/12/15 12:42:41;;;;;;;31.90;23.48;;;2.30;99.90;;;;;;6081557;23;20188;-74
2022/12/15 12:45:12;;;;;;;27.13;20.75;;;2.30;99.90;;;;;;6082236;23;20260;-71
2022/12/15 12:47:44;;;;;;;26.75;20.48;;;2.40;99.90;;;;;;6087282;23;20196;-71
2022/12/15 12:50:17;;;;;;;26.85;21.35;;;2.40;99.90;;;;;;6081978;23;20224;-71
2022/12/15 12:52:50;;;;;;;27.77;22.10;;;2.50;99.90;;;;;;6084392;23;20214;-73
2022/12/15 12:55:29;;;;;;;25.77;21.30;;;2.60;99.90;;;;;;6081208;23;20200;-72
2022/12/15 12:57:58;;;;;;;27.83;22.63;;;2.70;99.90;;;;;;6077027;23;20612;-72
2022/12/15 13:00:27;;;;;;;26.02;20.20;;;2.80;99.90;;;;;;6084486;23;20266;-73
2022/12/15 13:03:16;;;;;;;26.35;20.30;;;3.00;99.90;;;;;;6083533;23;20253;-73
2022/12/15 13:05:53;;;;;;;27.35;21.45;;;3.10;99.90;;;;;;6080240;23;20188;-72
2022/12/15 13:08:48;;;;;;;26.52;20.63;;;3.20;99.90;;;;;;6084899;23;20199;-72
2022/12/15 13:11:55;;;;;;;25.95;21.20;;;3.10;99.90;;;;;;6083941;23;20262;-83
2022/12/15 13:14:35;;;;;;;26.15;20.88;;;3.20;99.90;;;;;;6078348;23;20199;-77
2022/12/15 13:17:10;;;;;;;23.98;20.10;;;3.20;99.90;;;;;;6079558;23;20646;-76
2022/12/15 13:20:09;;;;;;;26.65;19.15;;;3.30;99.90;;;;;;6087140;23;20196;-78
2022/12/15 13:22:39;;;;;;;26.00;20.42;;;3.40;99.90;;;;;;6091483;23;20219;-74
2022/12/15 13:25:33;;;;;;;23.30;18.95;;;3.50;99.90;;;;;;6069898;23;20184;-73
2022/12/15 13:28:02;;;;;;;26.40;20.10;;;3.50;99.90;;;;;;6084746;23;20228;-73
2022/12/15 13:30:31;;;;;;;25.70;20.20;;;3.40;99.90;;;;;;6083777;23;20189;-73
2022/12/15 13:33:14;;;;;;;24.50;19.30;;;3.30;99.90;;;;;;6073608;23;20224;-73
2022/12/15 13:35:43;;;;;;;25.98;20.00;;;3.20;99.90;;;;;;6083473;23;20271;-73
2022/12/15 13:38:18;;;;;;;26.13;19.27;;;3.10;99.90;;;;;;6084025;23;20220;-73
2022/12/15 13:40:53;;;;;;;25.40;20.10;;;3.20;99.90;;;;;;6085225;23;20211;-74
2022/12/15 13:43:40;;;;;;;26.77;21.10;;;3.20;99.90;;;;;;6085164;23;20640;-73
2022/12/15 13:46:18;;;;;;;27.40;22.33;;;3.10;99.90;;;;;;6086801;23;20214;-73
2022/12/15 13:48:46;;;;;;;37.33;25.52;;;3.00;99.90;;;;;;6084198;23;20210;-73
2022/12/15 13:51:30;;;;;;;29.05;22.10;;;3.00;99.90;;;;;;6086358;23;20182;-73
2022/12/15 13:54:01;;;;;;;27.23;21.77;;;3.00;99.90;;;;;;6086150;23;20679;-73
2022/12/15 13:56:52;;;;;;;25.73;19.30;;;3.00;99.90;;;;;;6088086;23;20198;-73
2022/12/15 13:59:29;;;;;;;23.58;18.65;;;3.00;99.90;;;;;;6085764;23;20622;-73
2022/12/15 14:01:59;;;;;;;24.98;18.80;;;3.00;99.90;;;;;;6084465;23;20221;-73
2022/12/15 14:04:26;;;;;;;25.30;19.92;;;2.90;99.90;;;;;;6079360;23;20701;-73
2022/12/15 14:06:55;;;;;;;23.63;17.90;;;2.90;99.90;;;;;;6083632;23;20585;-73
2022/12/15 14:09:27;;;;;;;26.55;20.23;;;2.80;99.90;;;;;;6081948;23;20273;-73
2022/12/15 14:11:55;;;;;;;25.65;20.88;;;2.80;99.90;;;;;;6083926;23;20269;-73
2022/12/15 14:14:25;;;;;;;26.50;20.33;;;2.80;99.90;;;;;;6083342;23;20280;-73
2022/12/15 14:16:55;;;;;;;27.35;21.08;;;2.70;99.90;;;;;;6085253;23;20659;-73
2022/12/15 14:19:24;;;;;;;23.30;18.85;;;2.70;99.90;;;;;;6078477;23;20640;-72
2022/12/15 14:21:53;;;;;;;24.35;19.20;;;2.60;99.90;;;;;;6083086;23;20205;-73
2022/12/15 14:24:26;;;;;;;24.45;19.77;;;2.60;99.90;;;;;;6085804;23;20190;-73
2022/12/15 14:26:55;;;;;;;23.42;17.65;;;2.60;99.90;;;;;;6084601;23;20191;-72
2022/12/15 14:29:22;;;;;;;24.67;17.77;;;2.50;99.90;;;;;;6075977;23;20198;-73
2022/12/15 14:31:53;;;;;;;25.40;19.10;;;2.50;99.90;;;;;;6079055;23;20657;-73
2022/12/15 14:34:27;;;;;;;25.20;19.10;;;2.50;99.90;;;;;;6085498;23;20285;-72
2022/12/15 14:36:57;;;;;;;25.27;20.30;;;2.40;99.90;;;;;;6081817;23;20508;-72
2022/12/15 14:39:30;;;;;;;24.27;18.98;;;2.40;99.90;;;;;;6079761;23;20339;-72
2022/12/15 14:42:00;;;;;;;24.55;19.75;;;2.40;99.90;;;;;;6086976;23;20213;-72
2022/12/15 14:44:34;;;;;;;25.17;19.25;;;2.40;99.90;;;;;;6084128;23;20575;-70
2022/12/15 14:47:04;;;;;;;22.20;17.08;;;2.40;99.90;;;;;;6085308;23;20274;-73
2022/12/15 14:49:39;;;;;;;24.20;17.70;;;2.40;99.90;;;;;;6087712;23;20259;-74
2022/12/15 14:52:07;;;;;;;22.13;17.02;;;2.40;99.90;;;;;;6084489;23;20583;-73
2022/12/15 14:54:38;;;;;;;24.40;17.42;;;2.30;99.90;;;;;;6080982;23;20265;-74
2022/12/15 14:57:15;;;;;;;22.85;17.55;;;2.30;99.90;;;;;;6080796;23;20190;-75
2022/12/15 14:59:45;;;;;;;22.42;16.70;;;2.30;99.90;;;;;;6084504;23;20280;-74
2022/12/15 15:02:21;;;;;;;20.23;16.80;;;2.20;99.90;;;;;;6088515;23;20275;-74
2022/12/15 15:05:02;;;;;;;24.50;17.55;;;2.20;99.90;;;;;;6083192;23;20200;-74
2022/12/15 15:07:32;;;;;;;20.13;16.25;;;2.20;99.90;;;;;;6099018;23;20535;-74
2022/12/15 15:10:00;;;;;;;21.95;16.52;;;2.20;99.90;;;;;;6089257;23;20189;-74
2022/12/15 15:12:40;;;;;;;17.92;15.13;;;2.20;99.90;;;;;;6089176;23;20196;-74
2022/12/15 15:15:14;;;;;;;20.23;15.75;;;2.10;99.90;;;;;;6030647;23;1344816;-73
2022/12/15 15:17:45;;;;;;;18.05;14.82;;;2.10;99.90;;;;;;6081356;23;20272;-73
2022/12/15 15:20:21;;;;;;;20.17;16.67;;;2.00;99.90;;;;;;6081706;23;20189;-74